Tiempo atmosférico en la estación meteorológica de Puerto de Pajares, Asturias (1480 m.)



Fecha
DESCASC
Temp. máxima en grados centígrados (hora)
DESCASC
Temp. mínima en grados centígrados (hora)
DESCASC
Temp. media en grados centígrados
DESCASC
Racha de viento máxima en m/sg (hora)
DESCASC
Velocidad máxima media en intervalos de 10 minutos(hora)
DESCASC
Precipitaciones diarias en mm
DESCASC
Precipitaciones de 00:00 a 06:00 en mm
DESCASC
Precipitaciones de 06:00 a 12:00 en mm
DESCASC
Precipitaciones de 12:00 a 18:00 en mm
DESCASC
Precipitaciones de 18:00 a 24:00 en mm
DESCASC

Gráficas

Temp. máximas Temp. mínimas Temp. medias Precipitaciones Rachas de viento máximas Velocidades máximas media en intervalos de 10 minutos

Datos horarios

Fecha y hora oficial Temperatura (ºC) Velocidad del viento (km/h) Dirección del viento Racha (km/h) Dirección de racha Precipitación (mm) Presión (hPa) Tendencia (hPa) Humedad (%)
2019-04-17 23:00:00 7 17 Sur 39 Sur 1.5 -- -- 77
2019-04-17 22:00:00 8.5 12 Sur 43 Sur 0.2 -- -- 61
2019-04-17 21:00:00 9 28 Sur 66 Sur 0.1 -- -- 55
2019-04-17 20:00:00 8.8 28 Sur 69 Sur 0.3 -- -- 61
2019-04-17 19:00:00 9.9 18 Sur 66 Sur 0 -- -- 56
2019-04-17 18:00:00 10.9 30 Sur 66 Sur 0 -- -- 47
2019-04-17 17:00:00 11.2 23 Sur 61 Sur 0 -- -- 47
2019-04-17 16:00:00 10.6 24 Sur 58 Sur 0 -- -- 51
2019-04-17 15:00:00 10 21 Sur 55 Sur 0 -- -- 55
2019-04-17 14:00:00 9.7 35 Sur 58 Sur 0 -- -- 54
2019-04-17 13:00:00 9.6 32 Sur 66 Sur 0 -- -- 55
2019-04-17 12:00:00 9.6 35 Sur 63 Sur 0 -- -- 56
2019-04-17 11:00:00 8.5 28 Sur 89 Sur 0 -- -- 59
2019-04-17 10:00:00 8.6 26 Sur 63 Sur 0 -- -- 58
2019-04-17 09:00:00 6.5 29 Sudeste 56 Este 0 -- -- 64
2019-04-17 08:00:00 5.9 22 Sudeste 55 Este 0 -- -- 64
2019-04-17 07:00:00 6 23 Sudeste 53 Sur 0 -- -- 59
2019-04-17 06:00:00 6.9 31 Sur 57 Sur 0 -- -- 52
2019-04-17 05:00:00 6.8 27 Sur 49 Sur 0 -- -- 52
2019-04-17 04:00:00 7.5 24 Sur 56 Sur 0 -- -- 49
2019-04-17 03:00:00 7.8 25 Sur 61 Sur 0 -- -- 48
2019-04-17 02:00:00 8.2 23 Sur 51 Sur 0 -- -- 47
2019-04-17 01:00:00 8 22 Sur 46 Sur 0 -- -- 44
2019-04-17 00:00:00 7.7 22 Sur 44 Sur 0 -- -- 45
2019-04-16 23:00:00 7.6 22 Sur 41 Sur 0 -- -- 44
2019-04-16 22:00:00 8.1 14 Sur 39 Sudeste 0 -- -- 43
2019-04-16 21:00:00 8.6 15 Sudeste 45 Sur 0 -- -- 44
2019-04-16 20:00:00 9.1 16 Sur 48 Sur 0 -- -- 43
2019-04-16 19:00:00 10.1 23 Sur 39 Sur 0 -- -- 40
2019-04-16 18:00:00 10.1 22 Sur 42 Sur 0 -- -- 43
2019-04-16 17:00:00 10.6 19 Sur 42 Sur 0 -- -- 41
2019-04-16 16:00:00 9.8 20 Sur 39 Sur 0 -- -- 40
2019-04-16 15:00:00 10.6 11 Sur 43 Sudeste 0 -- -- 46
2019-04-16 14:00:00 9.2 14 Sur 31 Sur 0 -- -- 48
2019-04-16 13:00:00 8.3 10 Sudeste 43 Sudoeste 0 -- -- 53
2019-04-16 12:00:00 6.9 27 Sur 46 Sur 0 -- -- 62
2019-04-16 11:00:00 4.8 31 Sur 48 Sur 0 -- -- 73
2019-04-16 10:00:00 3.4 32 Sur 51 Sur 0 -- -- 79
2019-04-16 09:00:00 2.3 33 Sur 46 Sur 0 -- -- 83
2019-04-16 08:00:00 1.8 15 Sudeste 29 Sur 0 -- -- 83
2019-04-16 07:00:00 2 22 Sur 30 Sur 0 -- -- 82
2019-04-16 06:00:00 2 19 Sur 26 Sur 0 -- -- 78
2019-04-16 05:00:00 1.9 18 Sur 26 Sur 0 -- -- 78
2019-04-16 04:00:00 2.5 15 Sur 24 Sudeste 0 -- -- 78
2019-04-16 03:00:00 1.9 11 Sur 18 Sudeste 0 -- -- 85
2019-04-16 02:00:00 1.3 8 Sudoeste 10 Sudoeste 0 -- -- 91
2019-04-16 01:00:00 2.3 0 Calma 9 Noroeste 0 -- -- 92
2019-04-16 00:00:00 2.9 5 Norte 17 Noroeste 0 -- -- 92
2019-04-15 23:00:00 3.5 6 Norte 25 Noroeste 0 -- -- 91
2019-04-15 22:00:00 4.5 9 Noroeste 24 Noroeste 0.9 -- -- 91
2019-04-15 21:00:00 4.7 0 Calma 23 Oeste 0.4 -- -- 84
2019-04-15 20:00:00 6.2 8 Noroeste 22 Sur 0 -- -- 77
2019-04-15 19:00:00 8 2 Sur 32 Noroeste 0 -- -- 58
2019-04-15 18:00:00 8 6 Norte 29 Noroeste 0 -- -- 64
2019-04-15 17:00:00 6.9 11 Sudoeste 31 Sudoeste 0.6 -- -- 69
2019-04-15 16:00:00 9.3 16 Sudoeste 35 Sudoeste 0 -- -- 65
2019-04-15 15:00:00 11.1 14 Sudoeste 42 Sudoeste 0 -- -- 62
2019-04-15 14:00:00 10.3 15 Sudoeste 47 Sudeste 1.7 -- -- 78
2019-04-15 13:00:00 9.2 16 Sur 54 Sur 8.2 -- -- 82
2019-04-15 12:00:00 9 21 Sur 63 Sudeste 6.8 -- -- 83
2019-04-15 11:00:00 9.6 20 Sur 62 Sur 0.8 -- -- 83
2019-04-15 10:00:00 9.6 28 Sur 62 Sur 0 -- -- 83
2019-04-15 09:00:00 9.2 26 Sur 53 Sur 0 -- -- 84
2019-04-15 08:00:00 9 21 Sur 49 Sur 0 -- -- 83
2019-04-15 07:00:00 9.2 14 Sur 42 Sur 0 -- -- 84
2019-04-15 06:00:00 9.2 20 Sur 42 Sur 1 -- -- 85
2019-04-15 05:00:00 9.5 14 Sudeste 39 Sur 0 -- -- 80
2019-04-15 04:00:00 9.6 17 Sur 45 Sur 0 -- -- 78
2019-04-15 03:00:00 9.5 24 Sur 51 Sur 0 -- -- 77
2019-04-15 02:00:00 9.5 27 Sur 51 Sur 0 -- -- 78
2019-04-15 01:00:00 9.6 22 Sur 39 Sur 0 -- -- 75
2019-04-15 00:00:00 10 18 Sur 33 Sur 0 -- -- 73
2019-04-14 23:00:00 10.4 14 Sur 31 Sur 0 -- -- 71
2019-04-14 22:00:00 11.3 18 Sur 33 Sur 0 -- -- 66
2019-04-14 21:00:00 12.4 17 Sur 33 Sur 0 -- -- 60
2019-04-14 20:00:00 13.1 15 Sur 26 Sur 0 -- -- 57
2019-04-14 19:00:00 12.8 4 Norte -- -- -- -- -- 70
2019-04-14 18:00:00 13.2 4 Norte 12 Noroeste 0 -- -- 68
2019-04-14 17:00:00 14.3 2 Oeste 13 Norte 0 -- -- 60
2019-04-14 16:00:00 14.3 6 Noroeste 19 Noroeste 0 -- -- 61
2019-04-14 15:00:00 14.1 9 Noroeste 18 Noroeste 0 -- -- 59
2019-04-14 14:00:00 14.7 7 Noroeste 17 Noroeste 0 -- -- 57
2019-04-14 13:00:00 14 5 Norte 24 Sudeste 0 -- -- 57
2019-04-14 12:00:00 12.6 6 Nordeste 15 Nordeste 0 -- -- 59
2019-04-14 11:00:00 11.2 4 Noroeste 9 Noroeste 0 -- -- 66
2019-04-14 10:00:00 9.3 2 Noroeste 10 Norte 0 -- -- 75
2019-04-14 09:00:00 8.3 4 Noroeste 13 Oeste 0 -- -- 76
2019-04-14 08:00:00 7.4 0 Calma 13 Oeste 0 -- -- 77
2019-04-14 07:00:00 7.7 6 Noroeste 17 Norte 0 -- -- 77
2019-04-14 06:00:00 4.9 0 Calma 9 Sudoeste 0 -- -- 84
2019-04-14 05:00:00 5.2 6 Sur 10 Sudoeste 0 -- -- 80
2019-04-14 04:00:00 7.1 2 Sudoeste 15 Noroeste 0 -- -- 77
2019-04-14 03:00:00 6.6 0 Calma 11 Sudoeste 0 -- -- 75
2019-04-14 02:00:00 7.7 0 Calma 15 Noroeste 0 -- -- 73
2019-04-14 01:00:00 6.8 5 Sudoeste 10 Sudoeste 0 -- -- 78
2019-04-14 00:00:00 7.1 8 Sudoeste 9 Sudoeste 0 -- -- 79
2019-04-13 23:00:00 7.3 7 Sudoeste 10 Sur 0 -- -- 75
2019-04-13 22:00:00 6.9 7 Sur 9 Sur 0 -- -- 72
2019-04-13 21:00:00 7.9 4 Sudoeste 10 Oeste 0 -- -- 66
2019-04-13 20:00:00 9.6 3 Noroeste 11 Oeste 0 -- -- 58
2019-04-13 19:00:00 11.1 3 Norte 15 Noroeste 0 -- -- 54
2019-04-13 18:00:00 11.7 6 Noroeste 16 Oeste 0 -- -- 49
2019-04-13 17:00:00 13.5 4 Noroeste 19 Sur 0 -- -- 41
2019-04-13 16:00:00 13.4 5 Sur 19 Sudoeste 0 -- -- 39
2019-04-13 15:00:00 13.4 8 Sur 18 Sur 0 -- -- 39
2019-04-13 14:00:00 12.7 6 Sur 17 Sur 0 -- -- 39
2019-04-13 13:00:00 11.6 9 Sudoeste 23 Sur 0 -- -- 41
2019-04-13 12:00:00 10.4 14 Sur 23 Sur 0 -- -- 48
2019-04-13 11:00:00 8.5 17 Sur 28 Sur 0 -- -- 51
2019-04-13 10:00:00 7 17 Sur 23 Sur 0 -- -- 54
2019-04-13 09:00:00 5.7 13 Sur 18 Sur 0 -- -- 58
2019-04-13 08:00:00 4.4 14 Sur 22 Sur 0 -- -- 58
2019-04-13 07:00:00 4.8 12 Sur 22 Sudeste 0 -- -- 58
2019-04-13 06:00:00 5 14 Sur 26 Sur 0 -- -- 55
2019-04-13 05:00:00 4.8 18 Sur 28 Sur 0 -- -- 54
2019-04-13 04:00:00 5.3 18 Sur 25 Sur 0 -- -- 52
2019-04-13 03:00:00 4.9 15 Sur 26 Sur 0 -- -- 51
2019-04-13 02:00:00 5.3 16 Sur 27 Sur 0 -- -- 47
2019-04-13 01:00:00 5 14 Sur 20 Sur 0 -- -- 46
2019-04-13 00:00:00 4.9 12 Sur 19 Sur 0 -- -- 51
2019-04-12 23:00:00 4.9 14 Sur 18 Sur 0 -- -- 57
2019-04-12 22:00:00 4 9 Sudoeste 12 Sudoeste 0 -- -- 78
2019-04-12 21:00:00 4.5 6 Sudoeste 9 Sudoeste 0 -- -- 76
2019-04-12 20:00:00 7.1 6 Noroeste 15 Noroeste 0 -- -- 65
2019-04-12 19:00:00 8.9 8 Noroeste 17 Noroeste 0 -- -- 48
2019-04-12 18:00:00 9.9 7 Noroeste 15 Noroeste 0 -- -- 43
2019-04-12 17:00:00 10.1 4 Norte 15 Noroeste 0 -- -- 40
2019-04-12 16:00:00 9.6 4 Norte 17 Noroeste 0 -- -- 39
2019-04-12 15:00:00 9.3 6 Noroeste 16 Noroeste 0 -- -- 39
2019-04-12 14:00:00 7.7 6 Noroeste 15 Noroeste 0 -- -- 40
2019-04-12 13:00:00 6.9 5 Norte 14 Norte 0 -- -- 44
2019-04-12 12:00:00 6.4 9 Sur 17 Sur 0 -- -- 52
2019-04-12 11:00:00 5 9 Sur 15 Sur 0 -- -- 54
2019-04-12 10:00:00 3.2 5 Sur 11 Sur 0 -- -- 60
2019-04-12 09:00:00 0 8 Sur 14 Sudoeste 0 -- -- 64
2019-04-12 08:00:00 -0.5 12 Sudoeste 15 Sudoeste 0 -- -- 66
2019-04-12 07:00:00 -0.4 12 Sudoeste 16 Sudoeste 0 -- -- 71
2019-04-12 06:00:00 -1.7 10 Sudoeste 14 Sur 0 -- -- 77
2019-04-12 05:00:00 -1.7 7 Sudoeste 11 Sur 0 -- -- 86
2019-04-12 04:00:00 -1.3 7 Sur 10 Sur 0 -- -- 92
2019-04-12 03:00:00 -0.7 4 Sudoeste 7 Sudoeste 0 -- -- 92
2019-04-12 02:00:00 -0.1 0 Calma 9 Noroeste 0 -- -- 92
2019-04-12 01:00:00 0.5 3 Noroeste 9 Noroeste 0 -- -- 92
2019-04-12 00:00:00 1.2 5 Noroeste 16 Noroeste 0 -- -- 92
2019-04-11 23:00:00 1.4 6 Noroeste 15 Noroeste 0 -- -- 92
2019-04-11 22:00:00 1.5 6 Noroeste 18 Noroeste 0 -- -- 92
2019-04-11 21:00:00 1.4 8 Noroeste 19 Noroeste 0.6 -- -- 92
2019-04-11 20:00:00 1.4 6 Noroeste 19 Noroeste 0.7 -- -- 92
2019-04-11 19:00:00 1.5 6 Noroeste 21 Noroeste 0 -- -- 92
2019-04-11 18:00:00 1.7 10 Noroeste 22 Noroeste 0 -- -- 91
2019-04-11 17:00:00 2.3 6 Norte 15 Noroeste 0 -- -- 91
2019-04-11 16:00:00 1.9 4 Noroeste 16 Noroeste 0 -- -- 91
2019-04-11 15:00:00 1.2 8 Norte 24 Noroeste 0 -- -- 90
2019-04-11 14:00:00 2.4 7 Noroeste 16 Oeste 0 -- -- 90
2019-04-11 13:00:00 2 8 Noroeste 17 Noroeste 0.2 -- -- 92
2019-04-11 12:00:00 1.3 6 Noroeste 14 Noroeste 0.8 -- -- 93
2019-04-11 11:00:00 1 6 Norte 14 Noroeste 0.8 -- -- 93
2019-04-11 10:00:00 0 5 Noroeste 9 Noroeste 0.1 -- -- 93
2019-04-11 09:00:00 -0.3 4 Norte 7 Nordeste 0 -- -- 93
2019-04-11 08:00:00 -0.5 0 Calma 14 Noroeste 0 -- -- 93
2019-04-11 07:00:00 -0.4 8 Noroeste 18 Noroeste 0 -- -- 93
2019-04-11 06:00:00 -0.4 8 Noroeste 14 Noroeste 0 -- -- 93
2019-04-11 05:00:00 -0.4 3 Noroeste 12 Noroeste 0.1 -- -- 93
2019-04-11 04:00:00 0 5 Noroeste 19 Noroeste 0.1 -- -- 93
2019-04-11 03:00:00 0.1 9 Noroeste 22 Noroeste 0.2 -- -- 93
2019-04-11 02:00:00 0.2 13 Noroeste 30 Noroeste 0.4 -- -- 93
2019-04-11 01:00:00 0.4 11 Noroeste 31 Noroeste 0.1 -- -- 93
2019-04-11 00:00:00 0.6 10 Noroeste 26 Noroeste 0.7 -- -- 93
2019-04-10 23:00:00 0.7 11 Noroeste 26 Noroeste 0.1 -- -- 93
2019-04-10 22:00:00 0.1 12 Noroeste 37 Noroeste 0.4 -- -- 93
2019-04-10 21:00:00 0.8 12 Noroeste 31 Noroeste 0.1 -- -- 93
2019-04-10 20:00:00 1.2 9 Noroeste 32 Noroeste 0 -- -- 93
2019-04-10 19:00:00 1.1 16 Noroeste 36 Noroeste 0.6 -- -- 93
2019-04-10 18:00:00 1.1 18 Noroeste 37 Noroeste 0.1 -- -- 93
2019-04-10 17:00:00 1.3 16 Noroeste 39 Noroeste 0.3 -- -- 93
2019-04-10 16:00:00 1.4 11 Norte 49 Noroeste 0.5 -- -- 93
2019-04-10 15:00:00 1.4 15 Noroeste 37 Noroeste 2 -- -- 93
2019-04-10 14:00:00 1.3 12 Norte 40 Noroeste 1.2 -- -- 93
2019-04-10 13:00:00 0.8 20 Noroeste 43 Noroeste 1.6 -- -- 93
2019-04-10 12:00:00 0.5 19 Noroeste 50 Noroeste 1.3 -- -- 93
2019-04-10 11:00:00 0.3 17 Noroeste 32 Noroeste 0.3 -- -- 92
2019-04-10 10:00:00 0.5 7 Norte 16 Noroeste 0 -- -- 89
2019-04-10 09:00:00 0.5 2 Norte 8 Norte 0 -- -- 87
2019-04-10 08:00:00 0 0 Calma 6 Este 0 -- -- 87
2019-04-10 07:00:00 0 0 Calma 9 Este 0 -- -- 83
2019-04-10 06:00:00 0.2 0 Calma 12 Nordeste 0 -- -- 80
2019-04-10 05:00:00 0.2 7 Nordeste 16 Noroeste 0 -- -- 79
2019-04-10 04:00:00 0.6 2 Noroeste 15 Oeste 0 -- -- 76
2019-04-10 03:00:00 0.7 2 Nordeste 15 Sudoeste 0 -- -- 76
2019-04-10 02:00:00 0.1 0 Calma 9 Sudoeste 0 -- -- 75
2019-04-10 01:00:00 0.8 0 Calma 10 Oeste 0 -- -- 74
2019-04-10 00:00:00 1 0 Calma 13 Sudoeste 0 -- -- 73
2019-04-09 23:00:00 1.6 2 Oeste 22 Sudoeste 0 -- -- 73
2019-04-09 22:00:00 2.1 5 Sur 21 Sudoeste 0 -- -- 70
2019-04-09 21:00:00 3.1 8 Sur 23 Sur 0 -- -- 60
2019-04-09 20:00:00 4.3 4 Sur 17 Sudoeste 0 -- -- 60
2019-04-09 19:00:00 4.1 8 Noroeste 22 Noroeste 0 -- -- 53
2019-04-09 18:00:00 6.3 9 Sur 45 Sur 0 -- -- 50
2019-04-09 17:00:00 6.5 4 Oeste 27 Sudoeste 0 -- -- 49
2019-04-09 16:00:00 5.5 7 Oeste 42 Noroeste 0 -- -- 49
2019-04-09 15:00:00 4.8 6 Sur 27 Sudoeste 0 -- -- 52
2019-04-09 14:00:00 4.1 11 Sur 26 Sudoeste 0 -- -- 53
2019-04-09 13:00:00 5.2 8 Sur 19 Sudeste 0 -- -- 58
2019-04-09 12:00:00 3.4 3 Sur 20 Sur 1.4 -- -- 77
2019-04-09 11:00:00 1 13 Sur 24 Sur 0.2 -- -- 85
2019-04-09 10:00:00 0.4 14 Sur 26 Sur 0 -- -- 86
2019-04-09 09:00:00 0.3 11 Sur 30 Sudeste 0 -- -- 86
2019-04-09 08:00:00 0.2 15 Sur 36 Sur 0 -- -- 87
2019-04-09 07:00:00 0.2 16 Sur 42 Sur 0 -- -- 87
2019-04-09 06:00:00 0.1 17 Sudeste 34 Sudeste 0 -- -- 85
2019-04-09 05:00:00 0.4 18 Sudeste 34 Sur 0 -- -- 83
2019-04-09 04:00:00 0.7 17 Sur -- -- -- -- -- 77
2019-04-09 03:00:00 -- -- -- -- -- -- -- -- --
2019-04-09 02:00:00 1.8 19 Sur 36 Sudoeste 0 -- -- 64
2019-04-09 01:00:00 1.9 23 Sudoeste 40 Sudoeste 0 -- -- 62
2019-04-09 00:00:00 2 9 Sudoeste 32 Sudoeste 0 -- -- 59
2019-04-08 23:00:00 2.3 11 Sur 24 Sudoeste 0 -- -- 60
2019-04-08 22:00:00 2.7 11 Sudoeste 22 Sudoeste 0 -- -- 60
2019-04-08 21:00:00 3.7 13 Sudoeste 21 Sudoeste 0 -- -- 56
2019-04-08 20:00:00 4.1 12 Sudoeste -- -- -- -- -- 50
2019-04-08 19:00:00 -- -- -- -- -- -- -- -- --
2019-04-08 18:00:00 6.6 9 Sur 28 Sudoeste 0 -- -- 41
2019-04-08 17:00:00 6.2 13 Sudoeste 22 Sudoeste 0 -- -- 49
2019-04-08 16:00:00 6.5 8 Sudoeste 32 Sudoeste 0 -- -- 50
2019-04-08 15:00:00 5.2 14 Sur 29 Sudoeste 0 -- -- 55
2019-04-08 14:00:00 4.8 10 Sur 22 Sur 0 -- -- 61
2019-04-08 13:00:00 3.8 12 Sur 19 Sur 0 -- -- 58
2019-04-08 12:00:00 4.2 5 Sudoeste 20 Noroeste 0 -- -- 57
2019-04-08 11:00:00 3.5 12 Sur 32 Sur 0 -- -- 57
2019-04-08 10:00:00 2.6 11 Sur 18 Sur 1.3 -- -- 77
2019-04-08 09:00:00 1.4 12 Sur 18 Sur 0.8 -- -- 86
2019-04-08 08:00:00 1.4 9 Sur 18 Sudoeste 0.4 -- -- 87
2019-04-08 07:00:00 1.2 11 Sur 18 Sudoeste 0.3 -- -- 86
2019-04-08 06:00:00 1 6 Sudoeste 22 Sur 0.4 -- -- 88
2019-04-08 05:00:00 0.9 11 Sur 26 Sudeste 0 -- -- 90
2019-04-08 04:00:00 1 17 Sudeste 35 Sur 0 -- -- 90
2019-04-08 03:00:00 0.2 27 Sur 41 Sur 0 -- -- 89
2019-04-08 02:00:00 0.7 21 Sudeste 41 Sudeste 0 -- -- 87
2019-04-08 01:00:00 0.3 24 Sur 48 Sur 0 -- -- 89
2019-04-08 00:00:00 -0.1 33 Sur 80 Sur 0 -- -- 90
2019-04-07 23:00:00 -0.4 20 Sur 45 Sur 0 -- -- 89
2019-04-07 22:00:00 0 22 Sur 49 Sur 0 -- -- 87
2019-04-07 21:00:00 0.2 26 Sur 50 Sur 0.1 -- -- 86
2019-04-07 20:00:00 0.6 31 Sur 54 Sur 0.9 -- -- 85
2019-04-07 19:00:00 1.1 24 Sur 42 Sur 0.1 -- -- 79
2019-04-07 18:00:00 2.7 19 Sur 37 Sur 0 -- -- 57
2019-04-07 17:00:00 4.5 16 Sur 29 Sur 0 -- -- 46
2019-04-07 16:00:00 4.9 11 Sur 28 Sur 0 -- -- 42
2019-04-07 15:00:00 5.3 11 Sur 27 Sur 0 -- -- 43
2019-04-07 14:00:00 4.1 14 Sur 25 Sudeste 0 -- -- 44
2019-04-07 13:00:00 3.8 13 Sur 22 Sur 1.5 -- -- 46
2019-04-07 12:00:00 2.2 16 Sur 23 Sur 1.4 -- -- 49
2019-04-07 11:00:00 1.4 12 Sur 19 Sur 1.7 -- -- 49
2019-04-07 10:00:00 -0.1 5 Sur 12 Sur 0.4 -- -- 62
2019-04-07 09:00:00 -4.2 9 Sur 11 Sur 0 -- -- 76
2019-04-07 08:00:00 -4.5 7 Sudoeste 11 Sur 0 -- -- 76
2019-04-07 07:00:00 -2.9 2 Sudeste 11 Oeste 0 -- -- 80
2019-04-07 06:00:00 -2.9 3 Sudoeste 10 Oeste 0 -- -- 80
2019-04-07 05:00:00 -3.4 5 Sudoeste 14 Oeste 0 -- -- 78
2019-04-07 04:00:00 -2.2 0 Calma 13 Sudoeste 0 -- -- 83
2019-04-07 03:00:00 -2.9 0 Calma 10 Sudoeste 0 -- -- 81
2019-04-07 02:00:00 -3 5 Sudoeste 17 Sudoeste 0 -- -- 81
2019-04-07 01:00:00 -2.2 2 Sudoeste -- -- -- -- -- 89
2019-04-07 00:00:00 -- -- -- -- -- -- -- -- --
2019-04-06 23:00:00 -1.6 0 Calma 9 Noroeste 0 -- -- 91
2019-04-06 22:00:00 -1.3 2 Nordeste 22 Noroeste 0 -- -- 91
2019-04-06 21:00:00 -1.2 9 Noroeste 23 Noroeste 0 -- -- 91
2019-04-06 20:00:00 -0.9 9 Noroeste 18 Noroeste 0 -- -- 91
2019-04-06 19:00:00 -0.7 8 Noroeste 22 Noroeste 0 -- -- 89
2019-04-06 18:00:00 0 8 Norte 22 Noroeste 0 -- -- 84
2019-04-06 17:00:00 1.2 7 Noroeste 26 Noroeste 0.1 -- -- 77
2019-04-06 16:00:00 3.1 2 Nordeste 19 Noroeste 0 -- -- 59
2019-04-06 15:00:00 3.3 9 Sur 23 Sur 0 -- -- 62
2019-04-06 14:00:00 2.6 15 Sur 28 Sur 0.9 -- -- 69
2019-04-06 13:00:00 0.1 11 Sur 31 Sudeste 0.1 -- -- 79
2019-04-06 12:00:00 -0.7 21 Sudeste 35 Este 0 -- -- 83
2019-04-06 11:00:00 -1.6 21 Sudeste 36 Sudeste 0 -- -- 86
2019-04-06 10:00:00 -1.4 19 Sudeste 35 Este 0 -- -- 84
2019-04-06 09:00:00 -1.8 22 Sudeste 35 Este 0 -- -- 86
2019-04-06 08:00:00 -2.1 23 Sudeste 36 Sudeste 0 -- -- 84
2019-04-06 07:00:00 -1.6 17 Sudeste 41 Sur 0 -- -- 83
2019-04-06 06:00:00 -1.6 17 Sur 36 Sur 0 -- -- 82
2019-04-06 05:00:00 -1.5 20 Sur 39 Sur 0 -- -- 81
2019-04-06 04:00:00 -1.8 23 Sur 35 Sur 0 -- -- 81
2019-04-06 03:00:00 -1.8 14 Sur 26 Sur 0 -- -- 79
2019-04-06 02:00:00 -1.9 8 Sur 21 Sur 0 -- -- 78
2019-04-06 01:00:00 -1.6 14 Sur 26 Sur 0 -- -- 80
2019-04-06 00:00:00 -1.5 12 Sur 17 Sur 0 -- -- 78
2019-04-05 23:00:00 -1.6 10 Sur 15 Sur 0 -- -- 76
2019-04-05 22:00:00 -2 5 Sur 11 Sudoeste 0 -- -- 74
2019-04-05 21:00:00 0 2 Sudoeste 8 Sur 0 -- -- 68
2019-04-05 20:00:00 0.5 3 Sur 16 Sudoeste 0 -- -- 64
2019-04-05 19:00:00 1.3 8 Sur 18 Sudoeste 0 -- -- 57
2019-04-05 18:00:00 1.6 10 Sudoeste 22 Sudoeste 0 -- -- 51
2019-04-05 17:00:00 2.9 15 Sudoeste 23 Sudoeste 0 -- -- 48
2019-04-05 16:00:00 2.3 12 Sur 31 Sudoeste 0.4 -- -- 48
2019-04-05 15:00:00 1.6 16 Sur 24 Sur 1.7 -- -- 52
2019-04-05 14:00:00 0.4 10 Sur 32 Sur 1.1 -- -- 55
2019-04-05 13:00:00 -0.2 14 Sur 22 Sudeste 1.6 -- -- 56
2019-04-05 12:00:00 0.1 12 Sur 27 Sur 2 -- -- 53
2019-04-05 11:00:00 0.3 15 Sudoeste 33 Sudoeste 0.7 -- -- 52
2019-04-05 10:00:00 -0.4 19 Sur 37 Sudoeste 0 -- -- 54
2019-04-05 09:00:00 -1.7 18 Sudoeste 30 Sudoeste 0 -- -- 73
2019-04-05 08:00:00 -1.7 15 Sur 27 Sur 0 -- -- 84
2019-04-05 07:00:00 -1.1 10 Sur 23 Sur 0 -- -- 89
2019-04-05 06:00:00 -1.1 14 Sur 33 Sur 0 -- -- 90
2019-04-05 05:00:00 -1.2 20 Sur 33 Sur 0 -- -- 89
2019-04-05 04:00:00 -1.3 21 Sur 42 Sur 0 -- -- 89
2019-04-05 03:00:00 -1.4 21 Sur 50 Sudeste 0 -- -- 89
2019-04-05 02:00:00 -1.3 22 Sudeste 46 Sudeste -- -- -- 88
2019-04-05 01:00:00 -1.3 21 Sudeste 53 Sur -- -- -- 88
2019-04-05 00:00:00 -1.2 28 Sur 48 Sur -- -- -- 87
2019-04-04 23:00:00 -1 19 Sudeste 46 Sur -- -- -- 86
2019-04-04 22:00:00 -0.7 27 Sur 50 Sur -- -- -- 86
2019-04-04 21:00:00 -0.3 21 Sur 44 Sur -- -- -- 86
2019-04-04 20:00:00 -0.3 29 Sur 50 Sur -- -- -- 84
2019-04-04 19:00:00 -0.3 18 Sur 42 Sur -- -- -- 82
2019-04-04 18:00:00 -0.2 23 Sur 46 Sur -- -- -- 79
2019-04-04 17:00:00 -0.4 31 Sur 51 Sur -- -- -- 75
2019-04-04 16:00:00 0.1 27 Sur 40 Sur -- -- -- 66
2019-04-04 15:00:00 0.7 19 Sur 42 Sur -- -- -- 63
2019-04-04 14:00:00 0.8 22 Sur 35 Sur -- -- -- 69
2019-04-04 13:00:00 0.9 17 Sur 32 Sur -- -- -- 78
2019-04-04 12:00:00 -1 18 Sur 30 Sur -- -- -- 86
2019-04-04 11:00:00 -1.4 12 Sur 21 Sur -- -- -- 90
2019-04-04 10:00:00 -2.8 11 Sur 18 Sur -- -- -- 90
2019-04-04 09:00:00 -6.7 6 Sur 9 Sudoeste -- -- -- 87
2019-04-04 08:00:00 -5.9 5 Sudoeste 13 Noroeste -- -- -- 88
2019-04-04 07:00:00 -4.3 8 Noroeste 15 Norte -- -- -- 90
2019-04-04 06:00:00 -4 5 Noroeste 14 Noroeste -- -- -- 90
2019-04-04 05:00:00 -4.1 6 Noroeste 9 Noroeste -- -- -- 90
2019-04-04 04:00:00 -4.2 6 Noroeste 12 Noroeste -- -- -- 90
2019-04-04 03:00:00 -4.2 6 Noroeste 14 Noroeste -- -- -- 90
2019-04-04 02:00:00 -4 5 Noroeste 16 Oeste -- -- -- 90
2019-04-04 01:00:00 -4 8 Noroeste 19 Noroeste -- -- -- 90
2019-04-04 00:00:00 -3.9 9 Noroeste 31 Noroeste -- -- -- 90
2019-04-03 23:00:00 -3.9 11 Noroeste 30 Noroeste -- -- -- 90
2019-04-03 22:00:00 -3.8 14 Noroeste 39 Noroeste -- -- -- 90
2019-04-03 21:00:00 -3.4 13 Noroeste 34 Oeste -- -- -- 91
2019-04-03 20:00:00 -2.9 15 Noroeste 31 Noroeste -- -- -- 91
2019-04-03 19:00:00 -2.8 16 Noroeste 31 Oeste -- -- -- 91
2019-04-03 18:00:00 -2.3 13 Noroeste 31 Noroeste -- -- -- 91
2019-04-03 17:00:00 -2.9 10 Noroeste 35 Noroeste -- -- -- 91
2019-04-03 16:00:00 -2.2 16 Noroeste 39 Noroeste -- -- -- 91
2019-04-03 15:00:00 -2.6 13 Noroeste 40 Noroeste -- -- -- 91
2019-04-03 14:00:00 -2.3 18 Noroeste 39 Noroeste -- -- -- 91
2019-04-03 13:00:00 -2.1 17 Noroeste 30 Noroeste -- -- -- 91
2019-04-03 12:00:00 -2.3 14 Noroeste 32 Noroeste -- -- -- 91
2019-04-03 11:00:00 -2.3 16 Noroeste 40 Noroeste -- -- -- 91
2019-04-03 10:00:00 -2.3 14 Noroeste 39 Noroeste 0 -- -- 91
2019-04-03 09:00:00 -1.9 13 Noroeste 39 Noroeste 0 -- -- 92
2019-04-03 08:00:00 -2.1 19 Noroeste 40 Noroeste 0 -- -- 92
2019-04-03 07:00:00 -1.6 14 Noroeste 30 Noroeste 0 -- -- 92
2019-04-03 06:00:00 -1.3 9 Noroeste 24 Noroeste 0 -- -- 92
2019-04-03 05:00:00 -1.1 11 Noroeste 31 Noroeste 0 -- -- 93
2019-04-03 04:00:00 -0.7 13 Noroeste 28 Noroeste 0.1 -- -- 93
2019-04-03 03:00:00 -0.4 10 Noroeste 30 Noroeste 0 -- -- 93
2019-04-03 02:00:00 0 13 Noroeste 26 Noroeste 0.1 -- -- 93
2019-04-03 01:00:00 0.2 10 Noroeste 24 Noroeste 0.2 -- -- 93
2019-04-03 00:00:00 0.4 9 Noroeste 20 Noroeste 0.2 -- -- 93
2019-04-02 23:00:00 0.6 9 Noroeste 22 Noroeste 0.8 -- -- 93
2019-04-02 22:00:00 0.9 7 Noroeste 22 Noroeste 0.4 -- -- 93
2019-04-02 21:00:00 1.2 8 Noroeste 23 Noroeste 0.5 -- -- 93
2019-04-02 20:00:00 2.1 12 Noroeste 29 Noroeste 0.2 -- -- 93
2019-04-02 19:00:00 2.4 10 Noroeste 27 Noroeste 0 -- -- 93
2019-04-02 18:00:00 2.9 12 Noroeste 26 Noroeste 0 -- -- 91
2019-04-02 17:00:00 4.3 10 Noroeste 24 Noroeste 0 -- -- 79
2019-04-02 16:00:00 6.8 8 Noroeste 22 Norte 0 -- -- 68
2019-04-02 15:00:00 7.5 9 Noroeste 18 Noroeste 0 -- -- 63
2019-04-02 14:00:00 6.5 6 Noroeste 17 Noroeste 0 -- -- 67
2019-04-02 13:00:00 5.4 7 Noroeste 15 Noroeste 0 -- -- 76
2019-04-02 12:00:00 2.8 2 Oeste 13 Noroeste 0 -- -- 90
2019-04-02 11:00:00 1.9 4 Noroeste 10 Noroeste 0 -- -- 91
2019-04-02 10:00:00 1.8 6 Noroeste 9 Noroeste 0 -- -- 86
2019-04-02 09:00:00 1.7 0 Calma 10 Noroeste 0 -- -- 80
2019-04-02 08:00:00 2.3 0 Calma 7 Sudoeste 0 -- -- 81
2019-04-02 07:00:00 0.9 3 Sudoeste 9 Sur 0 -- -- 81
2019-04-02 06:00:00 2.2 4 Sudoeste 7 Sudoeste 0 -- -- 78
2019-04-02 05:00:00 2.5 3 Oeste 9 Sur 0 -- -- 78
2019-04-02 04:00:00 1.6 6 Sur 8 Sur 0 -- -- 78
2019-04-02 03:00:00 2.7 2 Oeste 6 Oeste 0 -- -- 78
2019-04-02 02:00:00 2.6 0 Calma 8 Oeste 0 -- -- 79
2019-04-02 01:00:00 2.7 6 Oeste 10 Oeste 0 -- -- 84
2019-04-02 00:00:00 2.2 3 Oeste 5 Oeste 0 -- -- 86
2019-04-01 23:00:00 2.8 3 Noroeste 9 Oeste 0 -- -- 85
2019-04-01 22:00:00 3.5 3 Noroeste 12 Noroeste 0 -- -- 82
2019-04-01 21:00:00 4.9 8 Noroeste 17 Noroeste 0 -- -- 75
2019-04-01 20:00:00 6.1 8 Noroeste 32 Noroeste 0 -- -- 65
2019-04-01 19:00:00 7.5 14 Noroeste 29 Noroeste 0 -- -- 60
2019-04-01 18:00:00 7.9 10 Noroeste 27 Noroeste 0 -- -- 51
2019-04-01 17:00:00 9.1 11 Noroeste 28 Noroeste 0 -- -- 43
2019-04-01 16:00:00 9.2 13 Noroeste 30 Noroeste 0 -- -- 39
2019-04-01 15:00:00 9 10 Noroeste 21 Noroeste 0 -- -- 40
2019-04-01 14:00:00 8.9 6 Noroeste 21 Noroeste 0 -- -- 42
2019-04-01 13:00:00 8.1 8 Noroeste 22 Noroeste 0 -- -- 46
2019-04-01 12:00:00 7.9 6 Noroeste 15 Nordeste 0 -- -- 53
2019-04-01 11:00:00 7 6 Norte 11 Norte 0 -- -- 57
2019-04-01 10:00:00 6.5 0 Calma 8 Sudoeste 0 -- -- 65
2019-04-01 09:00:00 2 8 Sur 13 Sudoeste 0 -- -- 76
2019-04-01 08:00:00 2.5 10 Sur 15 Sur 0 -- -- 74
2019-04-01 07:00:00 3 12 Sur 17 Sur 0 -- -- 74
2019-04-01 06:00:00 2.7 9 Sur 20 Sur 0 -- -- 74
2019-04-01 05:00:00 3.3 16 Sur 20 Sur 0 -- -- 75
2019-04-01 04:00:00 3.4 12 Sur 16 Sur 0 -- -- 78
2019-04-01 03:00:00 3.9 4 Sudoeste 7 Sudoeste 0 -- -- 79
2019-04-01 02:00:00 4.7 3 Sudoeste 9 Sudoeste 0 -- -- 79
2019-04-01 01:00:00 4.4 4 Sudoeste 8 Sudoeste 0 -- -- 77
2019-04-01 00:00:00 5 0 Calma 7 Sur 0 -- -- 73
2019-03-31 23:00:00 4.6 4 Sudoeste 7 Sudoeste 0 -- -- 74
2019-03-31 22:00:00 4.2 3 Sudoeste 7 Sudoeste 0 -- -- 69
2019-03-31 21:00:00 6.1 0 Calma -- -- 0 -- -- 65
2019-03-31 20:00:00 6.7 0 Calma 8 Oeste 0 -- -- 62
2019-03-31 19:00:00 7.2 5 Noroeste -- -- -- -- -- 63
2019-03-31 18:00:00 -- -- -- -- -- -- -- -- --
2019-03-31 17:00:00 8.7 7 Noroeste 22 Noroeste 0 -- -- 48
2019-03-31 16:00:00 10.3 5 Oeste 17 Nordeste 0 -- -- 44
2019-03-31 15:00:00 8 10 Nordeste 21 Norte 0 -- -- 48
2019-03-31 14:00:00 8.9 7 Noroeste 18 Noroeste 0 -- -- 43
2019-03-31 13:00:00 11.9 6 Sur 21 Sur 0 -- -- 36
2019-03-31 12:00:00 9.4 10 Sudeste 26 Sudeste 0 -- -- 39
2019-03-31 11:00:00 8.3 16 Sudeste -- -- -- -- -- 40
2019-03-31 10:00:00 -- -- -- -- -- -- -- -- --
2019-03-31 09:00:00 5.3 21 Sur 28 Sur 0 -- -- 52
2019-03-31 08:00:00 4.8 20 Sur 29 Sur 0 -- -- 55
2019-03-31 07:00:00 5 20 Sur 28 Sur 0 -- -- 58
2019-03-31 06:00:00 4.7 20 Sur 28 Sur 0 -- -- 61
2019-03-31 05:00:00 5.1 13 Sudeste 21 Sudeste 0 -- -- 62
2019-03-31 03:00:00 5.2 8 Sur 11 Sur 0 -- -- 67
2019-03-31 01:00:00 3.6 8 Sur 11 Sur 0 -- -- 75
2019-03-31 00:00:00 3.8 9 Sur 12 Sur 0 -- -- 75
2019-03-30 23:00:00 4 6 Sur 12 Sudoeste 0 -- -- 74
2019-03-30 22:00:00 4.3 6 Sur 8 Sur 0 -- -- 82
2019-03-30 21:00:00 4.4 0 Calma 5 Sudoeste 0 -- -- 84
2019-03-30 20:00:00 4.4 0 Calma 8 Noroeste 0 -- -- 83
2019-03-30 19:00:00 5.2 3 Noroeste -- -- -- -- -- 78
2019-03-30 18:00:00 6.6 5 Noroeste 20 Sur 0 -- -- 65
2019-03-30 17:00:00 8.5 0 Calma 22 Norte 0 -- -- 50
2019-03-30 16:00:00 10.4 9 Noroeste 22 Noroeste 0 -- -- 45
2019-03-30 15:00:00 8.9 9 Sur 26 Sur 0 -- -- 46
2019-03-30 14:00:00 9.8 7 Sudoeste 19 Norte 0 -- -- 48
2019-03-30 13:00:00 9.7 3 Sudoeste 15 Sur 0 -- -- 48
2019-03-30 12:00:00 10 11 Sur 22 Sur 0 -- -- 48
2019-03-30 11:00:00 8.7 10 Sur 19 Sudeste 0 -- -- 48
2019-03-30 10:00:00 7.3 14 Sur 24 Sur 0 -- -- 48
2019-03-30 09:00:00 5.8 18 Sur 23 Sur 0 -- -- 49
2019-03-30 08:00:00 5 17 Sur 26 Sur 0 -- -- 50
2019-03-30 07:00:00 4.2 18 Sur 29 Sur 0 -- -- 51
2019-03-30 06:00:00 4.8 22 Sur 28 Sur 0 -- -- 49
2019-03-30 05:00:00 5.3 17 Sur 22 Sur 0 -- -- 49
2019-03-30 04:00:00 4.9 17 Sur 32 Sur 0 -- -- 49
2019-03-30 03:00:00 6.1 21 Sur 30 Sur 0 -- -- 46
2019-03-30 02:00:00 5.1 13 Sur 21 Sur 0 -- -- 48
2019-03-30 01:00:00 6.5 14 Sur 24 Sur 0 -- -- 44
2019-03-30 00:00:00 6.9 14 Sur 23 Sur 0 -- -- 45
2019-03-29 23:00:00 7.4 13 Sur 22 Sur 0 -- -- 44
2019-03-29 22:00:00 8 14 Sur -- -- -- -- -- 45
2019-03-29 21:00:00 6.6 5 Sur 10 Sudoeste 0 -- -- 69
2019-03-29 20:00:00 6.3 5 Sudoeste 10 Sudoeste 0 -- -- 66
2019-03-29 19:00:00 8.2 3 Norte 11 Noroeste 0 -- -- 58
2019-03-29 18:00:00 10 6 Noroeste 14 Noroeste 0 -- -- 53
2019-03-29 17:00:00 10.4 8 Noroeste 15 Noroeste 0 -- -- 48
2019-03-29 16:00:00 11.9 7 Norte 15 Norte 0 -- -- 42
2019-03-29 15:00:00 12.5 5 Este 23 Sudoeste 0 -- -- 34
2019-03-29 14:00:00 11.8 10 Sudeste 22 Sudoeste 0 -- -- 35
2019-03-29 13:00:00 11.6 9 Sudeste 28 Sur 0 -- -- 37
2019-03-29 12:00:00 10.7 12 Sudeste 25 Este 0 -- -- 39
2019-03-29 11:00:00 9.4 15 Sur 28 Sur 0 -- -- 42
2019-03-29 10:00:00 7.7 21 Sur 30 Sur 0 -- -- 43
2019-03-29 09:00:00 6.7 20 Sur 31 Sur 0 -- -- 42
2019-03-29 08:00:00 4.8 23 Sur 31 Sur 0 -- -- 44
2019-03-29 07:00:00 4.7 21 Sur 26 Sur 0 -- -- 45
2019-03-29 06:00:00 4.7 18 Sur 25 Sur 0 -- -- 45
2019-03-29 05:00:00 4.1 12 Sur 17 Sudeste 0 -- -- 47
2019-03-29 04:00:00 4.5 11 Sur 14 Sudeste 0 -- -- 49
2019-03-29 03:00:00 4.7 9 Sur 15 Sur 0 -- -- 52
2019-03-29 02:00:00 4.4 12 Sur 16 Sudoeste 0 -- -- 54
2019-03-29 01:00:00 2.9 10 Sudoeste 13 Sudoeste 0 -- -- 66
2019-03-29 00:00:00 3.9 8 Sudoeste 12 Sudoeste 0 -- -- 60
2019-03-28 23:00:00 3.3 8 Sur 14 Sur 0 -- -- 72
2019-03-28 22:00:00 3.6 9 Sur 12 Sudoeste 0 -- -- 79
2019-03-28 21:00:00 3.7 8 Sudoeste 10 Sudoeste 0 -- -- 78
2019-03-28 20:00:00 4.2 4 Sudoeste 8 Sudoeste 0 -- -- 71
2019-03-28 19:00:00 7.2 0 Calma 11 Noroeste 0 -- -- 61
2019-03-28 18:00:00 8.8 6 Noroeste 15 Oeste 0 -- -- 54
2019-03-28 17:00:00 9.2 8 Noroeste 19 Noroeste 0 -- -- 50
2019-03-28 16:00:00 9.5 7 Noroeste 18 Noroeste 0 -- -- 47
2019-03-28 15:00:00 9.8 6 Noroeste 17 Norte 0 -- -- 43
2019-03-28 14:00:00 9.5 7 Noroeste 15 Norte 0 -- -- 39
2019-03-28 13:00:00 9.1 4 Noroeste 13 Noroeste 0 -- -- 36
2019-03-28 12:00:00 8.6 4 Norte 11 Noroeste 0 -- -- 35
2019-03-28 11:00:00 7.3 5 Noroeste 11 Oeste 0 -- -- 36
2019-03-28 10:00:00 6.6 5 Noroeste 11 Oeste 0 -- -- 36
2019-03-28 09:00:00 5.8 5 Noroeste 12 Oeste 0 -- -- 41
2019-03-28 08:00:00 1.2 0 Calma 10 Sudoeste 0 -- -- 50
2019-03-28 07:00:00 0.9 3 Sudoeste 9 Oeste 0 -- -- 47
2019-03-28 06:00:00 2.8 4 Oeste 13 Oeste 0 -- -- 43
2019-03-28 05:00:00 2 0 Calma 9 Oeste 0 -- -- 48
2019-03-28 04:00:00 1.1 4 Sur 10 Sudoeste 0 -- -- 53
2019-03-28 03:00:00 0.8 7 Sur 9 Sudoeste 0 -- -- 59
2019-03-28 02:00:00 1.5 3 Sur 11 Oeste 0 -- -- 62
2019-03-28 01:00:00 1.8 0 Calma 7 Sudeste 0 -- -- 74
2019-03-28 00:00:00 1.4 0 Calma 6 Sudoeste 0 -- -- 84
2019-03-27 23:00:00 2.2 0 Calma 6 Sur 0 -- -- 85
2019-03-27 22:00:00 2.1 0 Calma 6 Sudoeste 0 -- -- 84
2019-03-27 21:00:00 2.5 0 Calma -- -- 0 -- -- 80
2019-03-27 20:00:00 3.1 0 Calma 8 Norte 0 -- -- 75
2019-03-27 19:00:00 5.5 6 Noroeste 15 Noroeste 0 -- -- 66
2019-03-27 18:00:00 7.6 5 Noroeste 17 Noroeste 0 -- -- 54
2019-03-27 17:00:00 8.6 8 Noroeste 21 Noroeste 0 -- -- 47
2019-03-27 16:00:00 9.1 9 Noroeste 19 Noroeste 0 -- -- 43
2019-03-27 15:00:00 8.8 8 Noroeste 18 Noroeste 0 -- -- 40
2019-03-27 14:00:00 8.8 8 Noroeste 17 Noroeste 0 -- -- 39
2019-03-27 13:00:00 8.6 6 Noroeste 13 Noroeste 0 -- -- 36
2019-03-27 12:00:00 8.3 4 Noroeste 11 Noroeste 0 -- -- 35
2019-03-27 11:00:00 8.2 4 Noroeste 9 Noroeste 0 -- -- 28
2019-03-27 10:00:00 9.1 2 Este 7 Norte 0 -- -- 29
2019-03-27 09:00:00 6.6 2 Sudeste 8 Sur 0 -- -- 36
2019-03-27 08:00:00 1.2 5 Sudoeste 10 Sudoeste 0 -- -- 44
2019-03-27 07:00:00 1.4 4 Sur 10 Sudoeste 0 -- -- 41
2019-03-27 06:00:00 1.7 6 Sudoeste 15 Sudoeste 0 -- -- 41
2019-03-27 05:00:00 1.2 8 Sur 13 Sur 0 -- -- 44
2019-03-27 04:00:00 0.6 5 Sudoeste 10 Sur 0 -- -- 45
2019-03-27 03:00:00 0.7 4 Sudoeste 9 Sur 0 -- -- 39
2019-03-27 02:00:00 2.8 0 Calma 11 Sudoeste 0 -- -- 27
2019-03-27 01:00:00 6 9 Sur 25 Sur 0 -- -- 17
2019-03-27 00:00:00 7.5 13 Sudeste 25 Sudeste 0 -- -- 17
2019-03-26 23:00:00 4.7 14 Sur 21 Sur 0 -- -- 34
2019-03-26 22:00:00 2.2 0 Calma 9 Sudoeste 0 -- -- 74
2019-03-26 21:00:00 1.7 5 Sur 13 Sur 0 -- -- 74
2019-03-26 20:00:00 2.7 4 Sudoeste 9 Sudoeste 0 -- -- 69
2019-03-26 19:00:00 5.1 0 Calma 12 Oeste 0 -- -- 60
2019-03-26 18:00:00 7.3 3 Noroeste 15 Noroeste 0 -- -- 53
2019-03-26 17:00:00 8 5 Noroeste 15 Noroeste 0 -- -- 52
2019-03-26 16:00:00 8.1 7 Noroeste 16 Noroeste 0 -- -- 53
2019-03-26 15:00:00 7.5 7 Norte 16 Norte 0 -- -- 56
2019-03-26 14:00:00 7.1 6 Noroeste 16 Noroeste 0 -- -- 57
2019-03-26 13:00:00 5.6 6 Noroeste 20 Nordeste -- -- -- 61
2019-03-26 12:00:00 4.1 4 Noroeste 14 Noroeste -- -- -- 69
2019-03-26 11:00:00 3.3 5 Noroeste -- -- -- -- -- 77
2019-03-26 10:00:00 1.1 3 Norte 9 Noroeste 0 -- -- 90
2019-03-26 09:00:00 -0.8 0 Calma 11 Sudeste 0 -- -- 92
2019-03-26 08:00:00 -1.5 5 Sur 11 Sur 0 -- -- 93
2019-03-26 07:00:00 -1.5 4 Sudoeste 12 Oeste 0 -- -- 93
2019-03-26 06:00:00 -1.4 4 Noroeste 10 Oeste 0 -- -- 93
2019-03-26 05:00:00 -1.2 3 Noroeste 12 Noroeste 0 -- -- 93
2019-03-26 04:00:00 -0.9 6 Noroeste 13 Noroeste 0 -- -- 93
2019-03-26 03:00:00 -0.6 6 Noroeste 15 Noroeste 0 -- -- 93
2019-03-26 02:00:00 -0.4 9 Noroeste 17 Noroeste 0 -- -- 93
2019-03-26 01:00:00 0 6 Noroeste 20 Noroeste 0 -- -- 93
2019-03-26 00:00:00 0.5 9 Noroeste 20 Noroeste 0 -- -- 93
2019-03-25 23:00:00 0.9 8 Noroeste 21 Noroeste 0 -- -- 93
2019-03-25 22:00:00 1.5 6 Noroeste 19 Noroeste 0 -- -- 93
2019-03-25 21:00:00 2 10 Noroeste 21 Noroeste 0 -- -- 92
2019-03-25 20:00:00 2.7 6 Noroeste 14 Noroeste 0 -- -- 91
2019-03-25 19:00:00 3.2 7 Noroeste 15 Noroeste 0 -- -- 90
2019-03-25 18:00:00 3.5 8 Noroeste 21 Noroeste 0 -- -- 86
2019-03-25 17:00:00 4 10 Noroeste 22 Noroeste 0 -- -- 82
2019-03-25 16:00:00 5.4 7 Noroeste 17 Noroeste 0 -- -- 73
2019-03-25 15:00:00 5.4 9 Noroeste 17 Noroeste 0 -- -- 72
2019-03-25 14:00:00 4.8 10 Noroeste 18 Noroeste 0 -- -- 73
2019-03-25 13:00:00 -- -- -- -- -- -- -- -- --
2019-03-25 12:00:00 3.4 6 Noroeste 15 Noroeste 0 -- -- 82
2019-03-25 11:00:00 2.2 4 Noroeste 14 Noroeste 0 -- -- 89
2019-03-25 10:00:00 1.1 5 Noroeste 13 Oeste 0 -- -- 92
2019-03-25 09:00:00 0.8 5 Norte 15 Noroeste 0 -- -- 92
2019-03-25 08:00:00 0.6 0 Calma 6 Sur 0 -- -- 91
2019-03-25 07:00:00 1.2 0 Calma 8 Norte 0 -- -- 91
2019-03-25 06:00:00 1.5 0 Calma 6 Noroeste 0 -- -- 90
2019-03-25 05:00:00 1.4 2 Noroeste 6 Oeste 0 -- -- 87
2019-03-25 04:00:00 2.3 0 Calma 8 Sudoeste 0 -- -- 83
2019-03-25 03:00:00 3.1 4 Oeste 9 Oeste 0 -- -- 77
2019-03-25 02:00:00 2.1 0 Calma 5 Sur 0 -- -- 87
2019-03-25 01:00:00 2.9 0 Calma 6 Sur 0 -- -- 87
2019-03-25 00:00:00 3 0 Calma 11 Oeste 0 -- -- 86
2019-03-24 23:00:00 3.6 4 Oeste 11 Oeste 0 -- -- 86
2019-03-24 22:00:00 3.9 3 Noroeste 13 Oeste 0 -- -- 85
2019-03-24 21:00:00 3.8 8 Noroeste -- -- -- -- -- 85
2019-03-24 20:00:00 4.7 5 Noroeste 20 Noroeste 0 -- -- 85
2019-03-24 19:00:00 5.8 8 Noroeste 24 Noroeste 0 -- -- 86
2019-03-24 18:00:00 8.3 6 Noroeste 21 Noroeste 0 -- -- 77
2019-03-24 17:00:00 9.4 11 Noroeste 23 Noroeste 0 -- -- 65
2019-03-24 16:00:00 11 10 Noroeste 20 Noroeste 0 -- -- 54
2019-03-24 15:00:00 11.1 8 Noroeste 20 Noroeste 0 -- -- 55
2019-03-24 14:00:00 11.1 10 Noroeste 19 Norte 0 -- -- 54
2019-03-24 13:00:00 11.2 10 Noroeste 16 Noroeste 0 -- -- 48
2019-03-24 12:00:00 11 5 Noroeste 13 Noroeste 0 -- -- 43
2019-03-24 11:00:00 10.4 6 Noroeste 11 Noroeste 0 -- -- 41
2019-03-24 10:00:00 11.1 4 Noroeste 9 Sur 0 -- -- 42
2019-03-24 09:00:00 9.6 6 Sur 21 Sur 0 -- -- 47
2019-03-24 08:00:00 6.5 14 Sur 18 Sur 0 -- -- 52
2019-03-24 07:00:00 5.3 9 Sur 25 Sur 0 -- -- 54
2019-03-24 06:00:00 6.5 12 Sur 25 Sur 0 -- -- 51
2019-03-24 05:00:00 7.3 17 Sur 29 Sur 0 -- -- 52
2019-03-24 04:00:00 7.3 18 Sur 25 Sur 0 -- -- 52
2019-03-24 03:00:00 6.8 12 Sur 20 Sur 0 -- -- 54
2019-03-24 02:00:00 6.1 9 Sur 14 Sur 0 -- -- 55
2019-03-24 01:00:00 5.5 10 Sur 13 Sur 0 -- -- 56
2019-03-24 00:00:00 5.2 8 Sur 14 Sudoeste 0 -- -- 59
2019-03-23 23:00:00 5.1 9 Sudoeste 14 Sudoeste 0 -- -- 62
2019-03-23 22:00:00 5.6 10 Sudoeste 15 Sudoeste 0 -- -- 64
2019-03-23 21:00:00 5.2 10 Sudoeste 14 Sudoeste 0 -- -- 65
2019-03-23 20:00:00 5.4 9 Sudoeste 12 Sudoeste 0 -- -- 62
2019-03-23 19:00:00 8.2 3 Oeste 16 Oeste 0 -- -- 52
2019-03-23 18:00:00 9.9 7 Noroeste 18 Noroeste 0 -- -- 46
2019-03-23 17:00:00 11.2 8 Noroeste 21 Noroeste 0 -- -- 43
2019-03-23 16:00:00 11.9 9 Noroeste 23 Noroeste 0 -- -- 39
2019-03-23 15:00:00 13.7 4 Sudoeste 17 Sur 0 -- -- 32
2019-03-23 14:00:00 12.5 10 Sudeste 23 Sudeste 0 -- -- 32
2019-03-23 13:00:00 12.8 6 Sur 18 Sur 0 -- -- 34
2019-03-23 12:00:00 11.5 6 Sudeste 18 Este 0 -- -- 38
2019-03-23 11:00:00 10.7 7 Este 15 Sudeste 0 -- -- 42
2019-03-23 10:00:00 9 8 Sur 29 Sur 0 -- -- 48
2019-03-23 09:00:00 6.4 20 Sur 33 Sur 0 -- -- 51
2019-03-23 08:00:00 4.3 18 Sur 35 Sur 0 -- -- 53
2019-03-23 07:00:00 3.9 18 Sur 29 Sur 0 -- -- 53
2019-03-23 06:00:00 4.3 17 Sur 34 Sur 0 -- -- 52
2019-03-23 05:00:00 4.5 22 Sur 37 Sur 0 -- -- 51
2019-03-23 04:00:00 4.4 23 Sur 36 Sur 0 -- -- 51
2019-03-23 03:00:00 5.1 22 Sur 35 Sur 0 -- -- 49
2019-03-23 02:00:00 5.6 17 Sur 35 Sur 0 -- -- 48
2019-03-23 01:00:00 5.5 21 Sur 33 Sur 0 -- -- 50
2019-03-23 00:00:00 5.3 14 Sur 22 Sur 0 -- -- 51
2019-03-22 23:00:00 5.3 14 Sur 23 Sur 0 -- -- 55
2019-03-22 22:00:00 5.5 14 Sur 21 Sur 0 -- -- 60
2019-03-22 21:00:00 3.1 9 Sudoeste 12 Sudoeste 0 -- -- 74
2019-03-22 20:00:00 3.5 9 Sudoeste 12 Sudoeste 0 -- -- 69
2019-03-22 19:00:00 6.1 3 Oeste 15 Noroeste 0 -- -- 57
2019-03-22 18:00:00 8 8 Noroeste 18 Noroeste 0 -- -- 48
2019-03-22 17:00:00 9.7 8 Noroeste 19 Oeste 0 -- -- 43
2019-03-22 16:00:00 10.5 5 Noroeste 21 Noroeste 0 -- -- 39
2019-03-22 15:00:00 10.9 10 Noroeste 22 Noroeste 0 -- -- 33
2019-03-22 14:00:00 10.9 6 Noroeste 12 Sudoeste 0 -- -- 32
2019-03-22 13:00:00 10.6 0 Calma 9 Sudoeste 0 -- -- 34
2019-03-22 12:00:00 9.6 0 Calma 14 Sudeste 0 -- -- 37
2019-03-22 11:00:00 8.5 7 Sur 19 Sur 0 -- -- 43
2019-03-22 10:00:00 6.3 14 Sur 25 Sur 0 -- -- 48
2019-03-22 09:00:00 4.8 13 Sur 21 Sudoeste 0 -- -- 52
2019-03-22 08:00:00 2 16 Sur 24 Sudeste 0 -- -- 62
2019-03-22 07:00:00 1.7 15 Sur 27 Sudeste 0 -- -- 64
2019-03-22 06:00:00 1.9 17 Sur 30 Sur 0 -- -- 62
2019-03-22 05:00:00 1.8 18 Sur 27 Sur 0 -- -- 61
2019-03-22 04:00:00 1.6 19 Sur 32 Sur 0 -- -- 65
2019-03-22 03:00:00 2.4 23 Sur 33 Sur 0 -- -- 65
2019-03-22 02:00:00 1.9 18 Sur 29 Sur 0 -- -- 67
2019-03-22 01:00:00 2.2 20 Sur 30 Sur 0 -- -- 66
2019-03-22 00:00:00 2.4 21 Sur 30 Sur 0 -- -- 63
2019-03-21 23:00:00 3.1 22 Sur 33 Sur 0 -- -- 60
2019-03-21 22:00:00 3.8 22 Sur 30 Sur 0 -- -- 57
2019-03-21 21:00:00 4.5 15 Sur 25 Sur 0 -- -- 62
2019-03-21 20:00:00 2.4 8 Sudoeste 12 Sudoeste 0 -- -- 74
2019-03-21 19:00:00 3.5 4 Sudoeste 11 Noroeste 0 -- -- 69
2019-03-21 18:00:00 5.7 5 Noroeste 15 Oeste 0 -- -- 60
2019-03-21 17:00:00 6.8 6 Noroeste 19 Noroeste 0 -- -- 56
2019-03-21 16:00:00 7 7 Noroeste 19 Noroeste 0 -- -- 56
2019-03-21 15:00:00 7.1 6 Noroeste 16 Noroeste 0 -- -- 61
2019-03-21 14:00:00 6.3 6 Noroeste 15 Noroeste 0 -- -- 59
2019-03-21 13:00:00 5.8 6 Noroeste 13 Oeste 0 -- -- 59
2019-03-21 12:00:00 5.3 6 Noroeste 18 Sur 0 -- -- 50
2019-03-21 11:00:00 6.7 10 Sur 21 Sur 0 -- -- 38
2019-03-21 10:00:00 5.1 14 Sur 23 Sur 0 -- -- 44
2019-03-21 09:00:00 3 0 Calma 12 Sudoeste 0 -- -- 61
2019-03-21 08:00:00 -0.9 8 Sudoeste 12 Sudoeste 0 -- -- 68
2019-03-21 07:00:00 -1.2 8 Sudoeste 12 Sudoeste 0 -- -- 76
2019-03-21 06:00:00 -1.1 2 Sur 6 Sudoeste 0 -- -- 83
2019-03-21 05:00:00 -0.3 2 Sudoeste 9 Oeste 0 -- -- 83
2019-03-21 04:00:00 0.6 3 Oeste 8 Oeste 0 -- -- 82
2019-03-21 03:00:00 0.6 5 Oeste 12 Sudoeste 0 -- -- 79
2019-03-21 02:00:00 -0.2 6 Sur 10 Sur 0 -- -- 88
2019-03-21 01:00:00 -0.1 0 Calma 8 Sudoeste 0 -- -- 86
2019-03-21 00:00:00 0.3 3 Sudoeste 8 Sudoeste 0 -- -- 91
2019-03-20 23:00:00 0.6 3 Sur 6 Sudoeste 0 -- -- 91
2019-03-20 22:00:00 1.4 3 Sudoeste 8 Sudoeste 0 -- -- 91
2019-03-20 21:00:00 2.1 3 Noroeste 9 Norte 0 -- -- 91
2019-03-20 20:00:00 2.6 3 Noroeste 9 Noroeste 0 -- -- 90
2019-03-20 19:00:00 3 3 Noroeste 9 Oeste 0 -- -- 89
2019-03-20 18:00:00 3.5 5 Noroeste 14 Noroeste 0 -- -- 88
2019-03-20 17:00:00 4.1 7 Noroeste 18 Noroeste 0 -- -- 87
2019-03-20 16:00:00 4.7 7 Noroeste 14 Noroeste 0 -- -- 89
2019-03-20 15:00:00 4.2 6 Noroeste 14 Noroeste 0 -- -- 90
2019-03-20 14:00:00 4.1 5 Noroeste 15 Noroeste 0 -- -- 92
2019-03-20 13:00:00 3.3 5 Oeste 12 Noroeste 0.2 -- -- 92
2019-03-20 12:00:00 1.7 5 Noroeste 13 Oeste 1.4 -- -- 92
2019-03-20 11:00:00 0.9 6 Noroeste 14 Noroeste 0.8 -- -- 92
2019-03-20 10:00:00 0.4 6 Noroeste 20 Noroeste 0.5 -- -- 92
2019-03-20 09:00:00 0.1 8 Noroeste 19 Noroeste 0.2 -- -- 92
2019-03-20 08:00:00 0.1 10 Noroeste 16 Noroeste 0 -- -- 92
2019-03-20 07:00:00 0.1 12 Noroeste 17 Noroeste 0 -- -- 92
2019-03-20 06:00:00 0.1 8 Norte 20 Nordeste 0.1 -- -- 92
2019-03-20 05:00:00 0.2 8 Nordeste 21 Noroeste 0.2 -- -- 92
2019-03-20 04:00:00 0.2 8 Noroeste 17 Noroeste 0.2 -- -- 92
2019-03-20 03:00:00 0.3 7 Noroeste 15 Noroeste 0.1 -- -- 92
2019-03-20 02:00:00 0.3 9 Noroeste 16 Noroeste 0.2 -- -- 92
2019-03-20 01:00:00 0.2 5 Norte 14 Noroeste 0 -- -- 92
2019-03-20 00:00:00 0.3 10 Noroeste 22 Noroeste 0.2 -- -- 92
2019-03-19 23:00:00 0.3 9 Noroeste 22 Noroeste 0.2 -- -- 92
2019-03-19 22:00:00 0.4 12 Noroeste 25 Noroeste 0.3 -- -- 92
2019-03-19 21:00:00 0.6 11 Noroeste 20 Noroeste 0.4 -- -- 92
2019-03-19 20:00:00 0.6 10 Noroeste 19 Oeste 0.5 -- -- 92
2019-03-19 19:00:00 0.9 9 Noroeste 19 Noroeste 0.7 -- -- 92
2019-03-19 18:00:00 0.9 9 Noroeste 17 Noroeste 1.1 -- -- 92
2019-03-19 17:00:00 0.8 9 Noroeste 22 Noroeste 1.5 -- -- 92
2019-03-19 16:00:00 0.9 9 Noroeste 27 Noroeste 1.1 -- -- 92
2019-03-19 15:00:00 0.6 14 Noroeste 28 Noroeste 1.4 -- -- 92
2019-03-19 14:00:00 0.5 8 Noroeste 19 Oeste 0.9 -- -- 92
2019-03-19 13:00:00 0.3 7 Noroeste 18 Noroeste 0.6 -- -- 92
2019-03-19 12:00:00 0.1 8 Noroeste 17 Noroeste 1.6 -- -- 92
2019-03-19 11:00:00 0 10 Noroeste 21 Noroeste 0 -- -- 92
2019-03-19 10:00:00 -0.1 9 Noroeste 15 Oeste 0 -- -- 92
2019-03-19 09:00:00 -0.4 10 Noroeste 21 Noroeste 0 -- -- 92
2019-03-19 08:00:00 -0.7 11 Noroeste 27 Noroeste 0 -- -- 92
2019-03-19 07:00:00 -0.8 13 Noroeste 27 Oeste 0 -- -- 92
2019-03-19 06:00:00 -0.8 12 Noroeste 23 Noroeste 0 -- -- 92
2019-03-19 05:00:00 -1 14 Noroeste 27 Noroeste 0 -- -- 92
2019-03-19 04:00:00 -1.3 18 Noroeste 36 Noroeste 0 -- -- 92
2019-03-19 03:00:00 -1.3 17 Noroeste 42 Noroeste 0 -- -- 92
2019-03-19 02:00:00 -1.3 20 Noroeste 37 Noroeste 0 -- -- 92
2019-03-19 01:00:00 -1.2 13 Noroeste 32 Noroeste 0 -- -- 92
2019-03-19 00:00:00 -0.8 16 Noroeste 38 Noroeste 0 -- -- 92